sensor_id;sensor_type;location;lat;lon;timestamp;P1;durP1;ratioP1;P2;durP2;ratioP2
27895;SDS011;15241;48.374;10.876;2022-10-29T00:04:02;10.50;;;4.65;;
27895;SDS011;15241;48.374;10.876;2022-10-29T00:09:01;7.90;;;5.22;;
27895;SDS011;15241;48.374;10.876;2022-10-29T00:14:01;9.38;;;5.75;;
27895;SDS011;15241;48.374;10.876;2022-10-29T00:18:59;13.45;;;6.20;;
27895;SDS011;15241;48.374;10.876;2022-10-29T00:23:58;14.25;;;6.87;;
27895;SDS011;15241;48.374;10.876;2022-10-29T00:28:57;11.33;;;6.83;;
27895;SDS011;15241;48.374;10.876;2022-10-29T00:33:56;15.23;;;7.33;;
27895;SDS011;15241;48.374;10.876;2022-10-29T00:38:55;9.58;;;6.30;;
27895;SDS011;15241;48.374;10.876;2022-10-29T00:49:28;10.20;;;6.17;;
27895;SDS011;15241;48.374;10.876;2022-10-29T00:54:29;12.00;;;6.28;;
27895;SDS011;15241;48.374;10.876;2022-10-29T00:59:31;10.60;;;5.47;;
27895;SDS011;15241;48.374;10.876;2022-10-29T01:04:30;11.75;;;6.15;;
27895;SDS011;15241;48.374;10.876;2022-10-29T01:09:30;12.20;;;4.83;;
27895;SDS011;15241;48.374;10.876;2022-10-29T01:14:31;11.95;;;5.25;;
27895;SDS011;15241;48.374;10.876;2022-10-29T01:19:42;12.50;;;5.40;;
27895;SDS011;15241;48.374;10.876;2022-10-29T01:24:58;11.25;;;5.20;;
27895;SDS011;15241;48.374;10.876;2022-10-29T01:30:31;10.68;;;5.28;;
27895;SDS011;15241;48.374;10.876;2022-10-29T01:35:55;11.70;;;5.17;;
27895;SDS011;15241;48.374;10.876;2022-10-29T01:40:58;10.82;;;5.25;;
27895;SDS011;15241;48.374;10.876;2022-10-29T01:46:03;11.60;;;4.80;;
27895;SDS011;15241;48.374;10.876;2022-10-29T01:51:03;8.63;;;4.53;;
27895;SDS011;15241;48.374;10.876;2022-10-29T01:56:06;11.73;;;4.95;;
27895;SDS011;15241;48.374;10.876;2022-10-29T02:01:08;10.08;;;4.78;;
27895;SDS011;15241;48.374;10.876;2022-10-29T02:06:12;9.38;;;4.42;;
27895;SDS011;15241;48.374;10.876;2022-10-29T02:11:14;12.58;;;5.33;;
27895;SDS011;15241;48.374;10.876;2022-10-29T02:16:16;7.77;;;5.30;;
27895;SDS011;15241;48.374;10.876;2022-10-29T02:21:16;8.65;;;4.53;;
27895;SDS011;15241;48.374;10.876;2022-10-29T02:26:16;10.75;;;4.33;;
27895;SDS011;15241;48.374;10.876;2022-10-29T02:31:15;12.50;;;4.97;;
27895;SDS011;15241;48.374;10.876;2022-10-29T02:36:14;10.28;;;4.90;;
27895;SDS011;15241;48.374;10.876;2022-10-29T02:41:13;8.53;;;3.90;;
27895;SDS011;15241;48.374;10.876;2022-10-29T02:46:13;11.65;;;4.78;;
27895;SDS011;15241;48.374;10.876;2022-10-29T02:51:13;10.50;;;4.42;;
27895;SDS011;15241;48.374;10.876;2022-10-29T02:56:13;6.55;;;4.08;;
27895;SDS011;15241;48.374;10.876;2022-10-29T03:01:12;14.83;;;5.05;;
27895;SDS011;15241;48.374;10.876;2022-10-29T03:06:11;12.65;;;4.72;;
27895;SDS011;15241;48.374;10.876;2022-10-29T03:11:11;14.68;;;4.65;;
27895;SDS011;15241;48.374;10.876;2022-10-29T03:16:10;8.63;;;4.20;;
27895;SDS011;15241;48.374;10.876;2022-10-29T03:21:09;10.08;;;4.53;;
27895;SDS011;15241;48.374;10.876;2022-10-29T03:26:08;11.83;;;3.98;;
27895;SDS011;15241;48.374;10.876;2022-10-29T03:31:07;18.70;;;4.92;;
27895;SDS011;15241;48.374;10.876;2022-10-29T03:36:07;10.30;;;3.67;;
27895;SDS011;15241;48.374;10.876;2022-10-29T03:41:06;9.53;;;4.15;;
27895;SDS011;15241;48.374;10.876;2022-10-29T03:46:05;8.18;;;3.70;;
27895;SDS011;15241;48.374;10.876;2022-10-29T03:51:05;12.50;;;3.80;;
27895;SDS011;15241;48.374;10.876;2022-10-29T03:56:04;10.65;;;3.80;;
27895;SDS011;15241;48.374;10.876;2022-10-29T04:01:04;11.03;;;4.17;;
27895;SDS011;15241;48.374;10.876;2022-10-29T04:06:08;10.63;;;4.17;;
27895;SDS011;15241;48.374;10.876;2022-10-29T04:11:08;12.30;;;5.17;;
27895;SDS011;15241;48.374;10.876;2022-10-29T04:16:08;7.75;;;3.27;;
27895;SDS011;15241;48.374;10.876;2022-10-29T04:21:07;11.88;;;3.77;;
27895;SDS011;15241;48.374;10.876;2022-10-29T04:26:06;8.55;;;3.72;;
27895;SDS011;15241;48.374;10.876;2022-10-29T04:31:05;13.35;;;3.90;;
27895;SDS011;15241;48.374;10.876;2022-10-29T04:36:07;9.50;;;4.20;;
27895;SDS011;15241;48.374;10.876;2022-10-29T04:41:06;10.50;;;4.28;;
27895;SDS011;15241;48.374;10.876;2022-10-29T04:46:05;12.85;;;4.85;;
27895;SDS011;15241;48.374;10.876;2022-10-29T04:51:05;12.90;;;5.03;;
27895;SDS011;15241;48.374;10.876;2022-10-29T04:56:06;10.95;;;4.67;;
27895;SDS011;15241;48.374;10.876;2022-10-29T05:01:05;13.75;;;3.87;;
27895;SDS011;15241;48.374;10.876;2022-10-29T05:06:05;13.10;;;5.10;;
27895;SDS011;15241;48.374;10.876;2022-10-29T05:11:04;13.58;;;4.25;;
27895;SDS011;15241;48.374;10.876;2022-10-29T05:16:04;12.98;;;4.20;;
27895;SDS011;15241;48.374;10.876;2022-10-29T05:21:04;12.20;;;4.28;;
27895;SDS011;15241;48.374;10.876;2022-10-29T05:26:03;11.05;;;3.77;;
27895;SDS011;15241;48.374;10.876;2022-10-29T05:31:03;14.45;;;4.22;;
27895;SDS011;15241;48.374;10.876;2022-10-29T05:36:02;16.20;;;3.67;;
27895;SDS011;15241;48.374;10.876;2022-10-29T05:41:02;12.78;;;5.08;;
27895;SDS011;15241;48.374;10.876;2022-10-29T05:46:01;7.42;;;3.65;;
27895;SDS011;15241;48.374;10.876;2022-10-29T05:51:00;12.28;;;4.15;;
27895;SDS011;15241;48.374;10.876;2022-10-29T05:55:59;23.10;;;7.00;;
27895;SDS011;15241;48.374;10.876;2022-10-29T06:00:58;9.83;;;4.15;;
27895;SDS011;15241;48.374;10.876;2022-10-29T06:05:59;13.58;;;4.12;;
27895;SDS011;15241;48.374;10.876;2022-10-29T06:11:00;11.03;;;4.20;;
27895;SDS011;15241;48.374;10.876;2022-10-29T06:16:00;9.70;;;3.55;;
27895;SDS011;15241;48.374;10.876;2022-10-29T06:20:58;11.18;;;3.65;;
27895;SDS011;15241;48.374;10.876;2022-10-29T06:25:58;10.88;;;3.90;;
27895;SDS011;15241;48.374;10.876;2022-10-29T06:30:57;11.73;;;3.67;;
27895;SDS011;15241;48.374;10.876;2022-10-29T06:35:57;13.13;;;4.10;;
27895;SDS011;15241;48.374;10.876;2022-10-29T06:40:56;13.78;;;4.95;;
27895;SDS011;15241;48.374;10.876;2022-10-29T06:45:55;10.53;;;4.28;;
27895;SDS011;15241;48.374;10.876;2022-10-29T06:50:54;15.08;;;4.17;;
27895;SDS011;15241;48.374;10.876;2022-10-29T06:55:55;12.78;;;3.50;;
27895;SDS011;15241;48.374;10.876;2022-10-29T07:01:14;14.93;;;4.72;;
27895;SDS011;15241;48.374;10.876;2022-10-29T07:06:13;16.37;;;4.83;;
27895;SDS011;15241;48.374;10.876;2022-10-29T07:11:11;14.87;;;4.40;;
27895;SDS011;15241;48.374;10.876;2022-10-29T07:16:10;10.65;;;3.90;;
27895;SDS011;15241;48.374;10.876;2022-10-29T07:21:09;12.23;;;3.85;;
27895;SDS011;15241;48.374;10.876;2022-10-29T07:26:08;11.00;;;4.28;;
27895;SDS011;15241;48.374;10.876;2022-10-29T07:31:07;6.67;;;3.47;;
27895;SDS011;15241;48.374;10.876;2022-10-29T07:36:07;8.90;;;4.50;;
27895;SDS011;15241;48.374;10.876;2022-10-29T07:41:05;14.83;;;3.80;;
27895;SDS011;15241;48.374;10.876;2022-10-29T07:46:05;15.28;;;4.33;;
27895;SDS011;15241;48.374;10.876;2022-10-29T07:51:04;16.00;;;3.85;;
27895;SDS011;15241;48.374;10.876;2022-10-29T07:56:03;14.75;;;4.85;;
27895;SDS011;15241;48.374;10.876;2022-10-29T08:01:03;9.75;;;4.60;;
27895;SDS011;15241;48.374;10.876;2022-10-29T08:06:02;10.32;;;4.25;;
27895;SDS011;15241;48.374;10.876;2022-10-29T08:11:02;8.38;;;3.10;;
27895;SDS011;15241;48.374;10.876;2022-10-29T08:16:01;12.98;;;4.72;;
27895;SDS011;15241;48.374;10.876;2022-10-29T08:21:02;10.78;;;3.95;;
27895;SDS011;15241;48.374;10.876;2022-10-29T08:26:02;10.98;;;4.12;;
27895;SDS011;15241;48.374;10.876;2022-10-29T08:31:00;10.78;;;3.58;;
27895;SDS011;15241;48.374;10.876;2022-10-29T08:36:00;10.08;;;4.15;;
27895;SDS011;15241;48.374;10.876;2022-10-29T08:41:03;12.85;;;3.65;;
27895;SDS011;15241;48.374;10.876;2022-10-29T08:46:23;11.40;;;3.52;;
27895;SDS011;15241;48.374;10.876;2022-10-29T08:51:23;8.85;;;3.77;;
27895;SDS011;15241;48.374;10.876;2022-10-29T08:56:26;13.30;;;4.05;;
27895;SDS011;15241;48.374;10.876;2022-10-29T09:01:26;15.35;;;4.05;;
27895;SDS011;15241;48.374;10.876;2022-10-29T09:06:29;11.10;;;3.37;;
27895;SDS011;15241;48.374;10.876;2022-10-29T09:11:44;13.65;;;4.22;;
27895;SDS011;15241;48.374;10.876;2022-10-29T09:16:38;14.50;;;4.47;;
27895;SDS011;15241;48.374;10.876;2022-10-29T09:21:49;12.35;;;3.45;;
27895;SDS011;15241;48.374;10.876;2022-10-29T09:26:54;13.08;;;3.30;;
27895;SDS011;15241;48.374;10.876;2022-10-29T09:31:55;13.50;;;3.95;;
27895;SDS011;15241;48.374;10.876;2022-10-29T09:36:56;15.05;;;3.80;;
27895;SDS011;15241;48.374;10.876;2022-10-29T09:41:56;13.72;;;3.33;;
27895;SDS011;15241;48.374;10.876;2022-10-29T09:46:59;10.30;;;3.83;;
27895;SDS011;15241;48.374;10.876;2022-10-29T09:52:02;10.40;;;3.37;;
27895;SDS011;15241;48.374;10.876;2022-10-29T09:57:03;13.45;;;4.55;;
27895;SDS011;15241;48.374;10.876;2022-10-29T10:02:06;8.85;;;3.52;;
27895;SDS011;15241;48.374;10.876;2022-10-29T10:07:16;12.15;;;3.50;;
27895;SDS011;15241;48.374;10.876;2022-10-29T10:17:13;16.42;;;4.40;;
27895;SDS011;15241;48.374;10.876;2022-10-29T10:22:19;9.90;;;3.50;;
27895;SDS011;15241;48.374;10.876;2022-10-29T10:27:28;8.95;;;3.47;;
27895;SDS011;15241;48.374;10.876;2022-10-29T10:32:27;9.38;;;3.52;;
27895;SDS011;15241;48.374;10.876;2022-10-29T10:37:25;14.00;;;3.80;;
27895;SDS011;15241;48.374;10.876;2022-10-29T10:42:29;11.57;;;4.65;;
27895;SDS011;15241;48.374;10.876;2022-10-29T10:47:31;11.25;;;4.08;;
27895;SDS011;15241;48.374;10.876;2022-10-29T10:52:32;11.55;;;3.85;;
27895;SDS011;15241;48.374;10.876;2022-10-29T10:57:33;11.10;;;4.10;;
27895;SDS011;15241;48.374;10.876;2022-10-29T11:02:34;9.68;;;4.60;;
27895;SDS011;15241;48.374;10.876;2022-10-29T11:07:38;9.48;;;4.17;;
27895;SDS011;15241;48.374;10.876;2022-10-29T11:12:40;9.68;;;4.30;;
27895;SDS011;15241;48.374;10.876;2022-10-29T11:17:45;11.22;;;4.90;;
27895;SDS011;15241;48.374;10.876;2022-10-29T11:22:48;10.08;;;4.67;;
27895;SDS011;15241;48.374;10.876;2022-10-29T11:27:52;10.23;;;6.70;;
27895;SDS011;15241;48.374;10.876;2022-10-29T11:32:56;11.93;;;5.62;;
27895;SDS011;15241;48.374;10.876;2022-10-29T11:37:56;9.03;;;5.90;;
27895;SDS011;15241;48.374;10.876;2022-10-29T11:42:57;10.32;;;6.47;;
27895;SDS011;15241;48.374;10.876;2022-10-29T11:47:59;9.28;;;7.30;;
27895;SDS011;15241;48.374;10.876;2022-10-29T11:53:06;11.38;;;8.95;;
27895;SDS011;15241;48.374;10.876;2022-10-29T11:58:07;10.55;;;9.38;;
27895;SDS011;15241;48.374;10.876;2022-10-29T12:03:15;11.15;;;9.50;;
27895;SDS011;15241;48.374;10.876;2022-10-29T12:08:36;14.90;;;11.95;;
27895;SDS011;15241;48.374;10.876;2022-10-29T12:13:44;12.65;;;11.45;;
27895;SDS011;15241;48.374;10.876;2022-10-29T12:18:46;13.30;;;12.15;;
27895;SDS011;15241;48.374;10.876;2022-10-29T12:23:51;12.45;;;11.33;;
27895;SDS011;15241;48.374;10.876;2022-10-29T12:28:54;14.45;;;11.08;;
27895;SDS011;15241;48.374;10.876;2022-10-29T12:34:04;10.85;;;9.80;;
27895;SDS011;15241;48.374;10.876;2022-10-29T12:39:05;9.78;;;8.63;;
27895;SDS011;15241;48.374;10.876;2022-10-29T12:44:11;10.28;;;8.63;;
27895;SDS011;15241;48.374;10.876;2022-10-29T12:49:13;13.00;;;7.62;;
27895;SDS011;15241;48.374;10.876;2022-10-29T12:54:18;8.88;;;6.60;;
27895;SDS011;15241;48.374;10.876;2022-10-29T12:59:33;9.00;;;6.40;;
27895;SDS011;15241;48.374;10.876;2022-10-29T13:04:33;8.67;;;5.73;;
27895;SDS011;15241;48.374;10.876;2022-10-29T13:09:32;9.25;;;5.37;;
27895;SDS011;15241;48.374;10.876;2022-10-29T13:14:34;8.43;;;5.33;;
27895;SDS011;15241;48.374;10.876;2022-10-29T13:19:37;11.85;;;5.42;;
27895;SDS011;15241;48.374;10.876;2022-10-29T13:24:43;8.60;;;4.53;;
27895;SDS011;15241;48.374;10.876;2022-10-29T13:29:42;8.57;;;4.10;;
27895;SDS011;15241;48.374;10.876;2022-10-29T13:34:50;12.07;;;4.35;;
27895;SDS011;15241;48.374;10.876;2022-10-29T13:40:07;10.65;;;4.50;;
27895;SDS011;15241;48.374;10.876;2022-10-29T13:45:25;9.88;;;4.58;;
27895;SDS011;15241;48.374;10.876;2022-10-29T13:50:24;9.88;;;5.50;;
27895;SDS011;15241;48.374;10.876;2022-10-29T13:55:23;8.53;;;5.03;;
27895;SDS011;15241;48.374;10.876;2022-10-29T14:00:23;11.63;;;5.25;;
27895;SDS011;15241;48.374;10.876;2022-10-29T14:05:25;9.43;;;4.45;;
27895;SDS011;15241;48.374;10.876;2022-10-29T14:10:26;13.58;;;4.95;;
27895;SDS011;15241;48.374;10.876;2022-10-29T14:15:28;12.40;;;4.37;;
27895;SDS011;15241;48.374;10.876;2022-10-29T14:20:27;13.15;;;4.72;;
27895;SDS011;15241;48.374;10.876;2022-10-29T14:25:30;13.03;;;4.80;;
27895;SDS011;15241;48.374;10.876;2022-10-29T14:30:31;13.78;;;4.40;;
27895;SDS011;15241;48.374;10.876;2022-10-29T14:35:30;12.25;;;5.45;;
27895;SDS011;15241;48.374;10.876;2022-10-29T14:40:29;14.35;;;6.05;;
27895;SDS011;15241;48.374;10.876;2022-10-29T14:45:29;13.08;;;5.47;;
27895;SDS011;15241;48.374;10.876;2022-10-29T14:50:28;13.98;;;4.87;;
27895;SDS011;15241;48.374;10.876;2022-10-29T14:55:29;13.28;;;5.08;;
27895;SDS011;15241;48.374;10.876;2022-10-29T15:00:39;9.98;;;4.53;;
27895;SDS011;15241;48.374;10.876;2022-10-29T15:05:46;11.85;;;3.95;;
27895;SDS011;15241;48.374;10.876;2022-10-29T15:10:46;13.10;;;4.22;;
27895;SDS011;15241;48.374;10.876;2022-10-29T15:15:50;13.98;;;5.78;;
27895;SDS011;15241;48.374;10.876;2022-10-29T15:20:52;10.78;;;4.50;;
27895;SDS011;15241;48.374;10.876;2022-10-29T15:25:52;14.07;;;5.10;;
27895;SDS011;15241;48.374;10.876;2022-10-29T15:30:56;18.85;;;5.15;;
27895;SDS011;15241;48.374;10.876;2022-10-29T15:35:58;12.05;;;5.05;;
27895;SDS011;15241;48.374;10.876;2022-10-29T15:41:11;22.30;;;5.75;;
27895;SDS011;15241;48.374;10.876;2022-10-29T15:46:19;14.60;;;5.20;;
27895;SDS011;15241;48.374;10.876;2022-10-29T15:51:19;14.83;;;4.60;;
27895;SDS011;15241;48.374;10.876;2022-10-29T15:56:19;14.13;;;4.95;;
27895;SDS011;15241;48.374;10.876;2022-10-29T16:01:19;15.98;;;5.28;;
27895;SDS011;15241;48.374;10.876;2022-10-29T16:06:18;17.50;;;5.90;;
27895;SDS011;15241;48.374;10.876;2022-10-29T16:11:17;14.25;;;5.58;;
27895;SDS011;15241;48.374;10.876;2022-10-29T16:16:18;14.53;;;4.90;;
27895;SDS011;15241;48.374;10.876;2022-10-29T16:21:19;16.37;;;5.10;;
27895;SDS011;15241;48.374;10.876;2022-10-29T16:26:19;15.08;;;5.53;;
27895;SDS011;15241;48.374;10.876;2022-10-29T16:31:19;14.55;;;5.90;;
27895;SDS011;15241;48.374;10.876;2022-10-29T16:36:20;18.27;;;5.95;;
27895;SDS011;15241;48.374;10.876;2022-10-29T16:41:19;21.23;;;5.25;;
27895;SDS011;15241;48.374;10.876;2022-10-29T16:46:18;16.30;;;6.22;;
27895;SDS011;15241;48.374;10.876;2022-10-29T16:51:17;17.02;;;8.10;;
27895;SDS011;15241;48.374;10.876;2022-10-29T16:56:16;16.52;;;7.20;;
27895;SDS011;15241;48.374;10.876;2022-10-29T17:01:15;15.10;;;6.35;;
27895;SDS011;15241;48.374;10.876;2022-10-29T17:06:14;15.15;;;7.58;;
27895;SDS011;15241;48.374;10.876;2022-10-29T17:11:13;23.20;;;6.12;;
27895;SDS011;15241;48.374;10.876;2022-10-29T17:16:12;22.02;;;8.65;;
27895;SDS011;15241;48.374;10.876;2022-10-29T17:21:19;16.57;;;8.73;;
27895;SDS011;15241;48.374;10.876;2022-10-29T17:26:18;20.35;;;8.18;;
27895;SDS011;15241;48.374;10.876;2022-10-29T17:31:17;18.70;;;7.65;;
27895;SDS011;15241;48.374;10.876;2022-10-29T17:36:16;18.52;;;8.00;;
27895;SDS011;15241;48.374;10.876;2022-10-29T17:41:15;16.32;;;8.20;;
27895;SDS011;15241;48.374;10.876;2022-10-29T17:46:14;24.27;;;9.05;;
27895;SDS011;15241;48.374;10.876;2022-10-29T17:51:13;19.82;;;8.75;;
27895;SDS011;15241;48.374;10.876;2022-10-29T17:56:12;20.35;;;8.48;;
27895;SDS011;15241;48.374;10.876;2022-10-29T18:01:11;21.27;;;9.45;;
27895;SDS011;15241;48.374;10.876;2022-10-29T18:06:11;22.77;;;10.85;;
27895;SDS011;15241;48.374;10.876;2022-10-29T18:11:11;26.70;;;11.85;;
27895;SDS011;15241;48.374;10.876;2022-10-29T18:16:12;20.23;;;11.03;;
27895;SDS011;15241;48.374;10.876;2022-10-29T18:21:13;26.40;;;10.72;;
27895;SDS011;15241;48.374;10.876;2022-10-29T18:26:20;27.17;;;11.03;;
27895;SDS011;15241;48.374;10.876;2022-10-29T18:31:22;32.35;;;11.68;;
27895;SDS011;15241;48.374;10.876;2022-10-29T18:36:22;26.15;;;12.75;;
27895;SDS011;15241;48.374;10.876;2022-10-29T18:41:21;30.37;;;14.45;;
27895;SDS011;15241;48.374;10.876;2022-10-29T18:46:21;28.27;;;12.35;;
27895;SDS011;15241;48.374;10.876;2022-10-29T18:51:20;33.48;;;13.55;;
27895;SDS011;15241;48.374;10.876;2022-10-29T18:56:21;27.00;;;12.82;;
27895;SDS011;15241;48.374;10.876;2022-10-29T19:01:21;25.52;;;12.80;;
27895;SDS011;15241;48.374;10.876;2022-10-29T19:06:22;27.45;;;13.43;;
27895;SDS011;15241;48.374;10.876;2022-10-29T19:11:23;28.35;;;14.30;;
27895;SDS011;15241;48.374;10.876;2022-10-29T19:16:24;27.98;;;14.50;;
27895;SDS011;15241;48.374;10.876;2022-10-29T19:21:24;24.75;;;13.70;;
27895;SDS011;15241;48.374;10.876;2022-10-29T19:26:24;28.95;;;14.87;;
27895;SDS011;15241;48.374;10.876;2022-10-29T19:31:25;26.87;;;13.90;;
27895;SDS011;15241;48.374;10.876;2022-10-29T19:36:26;26.75;;;13.65;;
27895;SDS011;15241;48.374;10.876;2022-10-29T19:41:26;26.95;;;14.65;;
27895;SDS011;15241;48.374;10.876;2022-10-29T19:46:25;24.45;;;14.63;;
27895;SDS011;15241;48.374;10.876;2022-10-29T19:51:24;20.32;;;12.47;;
27895;SDS011;15241;48.374;10.876;2022-10-29T19:56:24;28.17;;;14.15;;
27895;SDS011;15241;48.374;10.876;2022-10-29T20:01:23;21.73;;;13.20;;
27895;SDS011;15241;48.374;10.876;2022-10-29T20:06:22;23.80;;;13.25;;
27895;SDS011;15241;48.374;10.876;2022-10-29T20:11:21;23.32;;;13.55;;
27895;SDS011;15241;48.374;10.876;2022-10-29T20:16:20;27.52;;;13.83;;
27895;SDS011;15241;48.374;10.876;2022-10-29T20:21:19;27.52;;;12.05;;
27895;SDS011;15241;48.374;10.876;2022-10-29T20:26:18;21.12;;;11.35;;
27895;SDS011;15241;48.374;10.876;2022-10-29T20:31:24;25.15;;;11.45;;
27895;SDS011;15241;48.374;10.876;2022-10-29T20:36:25;22.20;;;10.78;;
27895;SDS011;15241;48.374;10.876;2022-10-29T20:41:25;19.60;;;10.80;;
27895;SDS011;15241;48.374;10.876;2022-10-29T20:46:25;21.23;;;11.22;;
27895;SDS011;15241;48.374;10.876;2022-10-29T20:51:33;18.55;;;10.63;;
27895;SDS011;15241;48.374;10.876;2022-10-29T20:56:32;17.65;;;11.28;;
27895;SDS011;15241;48.374;10.876;2022-10-29T21:01:31;19.35;;;10.43;;
27895;SDS011;15241;48.374;10.876;2022-10-29T21:06:30;21.23;;;11.73;;
27895;SDS011;15241;48.374;10.876;2022-10-29T21:11:29;20.70;;;10.88;;
27895;SDS011;15241;48.374;10.876;2022-10-29T21:16:28;24.80;;;10.75;;
27895;SDS011;15241;48.374;10.876;2022-10-29T21:21:27;24.72;;;11.05;;
27895;SDS011;15241;48.374;10.876;2022-10-29T21:26:27;23.25;;;16.30;;
27895;SDS011;15241;48.374;10.876;2022-10-29T21:31:26;23.38;;;14.58;;
27895;SDS011;15241;48.374;10.876;2022-10-29T21:36:25;16.57;;;10.63;;
27895;SDS011;15241;48.374;10.876;2022-10-29T21:41:24;22.13;;;10.68;;
27895;SDS011;15241;48.374;10.876;2022-10-29T21:46:23;23.73;;;10.98;;
27895;SDS011;15241;48.374;10.876;2022-10-29T21:51:22;19.87;;;11.43;;
27895;SDS011;15241;48.374;10.876;2022-10-29T21:56:21;18.73;;;9.75;;
27895;SDS011;15241;48.374;10.876;2022-10-29T22:01:19;16.75;;;10.23;;
27895;SDS011;15241;48.374;10.876;2022-10-29T22:06:19;16.50;;;9.78;;
27895;SDS011;15241;48.374;10.876;2022-10-29T22:11:18;18.10;;;10.60;;
27895;SDS011;15241;48.374;10.876;2022-10-29T22:16:17;18.60;;;10.68;;
27895;SDS011;15241;48.374;10.876;2022-10-29T22:21:17;19.00;;;10.45;;
27895;SDS011;15241;48.374;10.876;2022-10-29T22:26:20;20.55;;;10.32;;
27895;SDS011;15241;48.374;10.876;2022-10-29T22:31:22;14.85;;;9.95;;
27895;SDS011;15241;48.374;10.876;2022-10-29T22:36:22;14.45;;;9.00;;
27895;SDS011;15241;48.374;10.876;2022-10-29T22:41:22;17.30;;;10.43;;
27895;SDS011;15241;48.374;10.876;2022-10-29T22:46:22;15.20;;;9.20;;
27895;SDS011;15241;48.374;10.876;2022-10-29T22:51:22;18.98;;;8.80;;
27895;SDS011;15241;48.374;10.876;2022-10-29T22:56:25;21.02;;;10.53;;
27895;SDS011;15241;48.374;10.876;2022-10-29T23:01:26;17.02;;;9.73;;
27895;SDS011;15241;48.374;10.876;2022-10-29T23:06:27;22.37;;;11.35;;
27895;SDS011;15241;48.374;10.876;2022-10-29T23:11:27;19.60;;;9.83;;
27895;SDS011;15241;48.374;10.876;2022-10-29T23:16:27;14.55;;;9.18;;
27895;SDS011;15241;48.374;10.876;2022-10-29T23:21:27;18.98;;;9.10;;
27895;SDS011;15241;48.374;10.876;2022-10-29T23:26:27;14.80;;;9.10;;
27895;SDS011;15241;48.374;10.876;2022-10-29T23:31:26;21.68;;;9.15;;
27895;SDS011;15241;48.374;10.876;2022-10-29T23:36:25;20.97;;;9.48;;
27895;SDS011;15241;48.374;10.876;2022-10-29T23:41:25;21.23;;;9.83;;
27895;SDS011;15241;48.374;10.876;2022-10-29T23:46:24;19.12;;;9.48;;
27895;SDS011;15241;48.374;10.876;2022-10-29T23:51:23;17.92;;;9.23;;
27895;SDS011;15241;48.374;10.876;2022-10-29T23:56:22;21.57;;;8.95;;
